createdAt,value
2022-12-14T00:02:06.711Z,33.90
2022-12-14T00:04:35.315Z,32.57
2022-12-14T00:07:03.868Z,31.47
2022-12-14T00:09:32.288Z,32.50
2022-12-14T00:12:00.526Z,30.73
2022-12-14T00:14:29.019Z,31.37
2022-12-14T00:16:58.763Z,30.93
2022-12-14T00:19:27.285Z,31.77
2022-12-14T00:21:56.241Z,33.27
2022-12-14T00:24:24.674Z,33.97
2022-12-14T00:26:53.378Z,33.17
2022-12-14T00:29:21.830Z,33.17
2022-12-14T00:31:52.263Z,34.83
2022-12-14T00:34:22.087Z,33.73
2022-12-14T00:36:50.471Z,33.67
2022-12-14T00:39:18.848Z,34.97
2022-12-14T00:41:47.265Z,35.13
2022-12-14T00:44:15.711Z,33.17
2022-12-14T00:46:44.004Z,34.97
2022-12-14T00:49:12.588Z,33.70
2022-12-14T00:51:42.220Z,32.17
2022-12-14T00:54:10.589Z,34.67
2022-12-14T00:56:38.997Z,33.73
2022-12-14T00:59:07.681Z,34.30
2022-12-14T01:01:36.847Z,35.30
2022-12-14T01:04:22.558Z,35.47
2022-12-14T01:06:53.373Z,34.47
2022-12-14T01:09:23.203Z,33.30
2022-12-14T01:11:53.187Z,34.50
2022-12-14T01:14:23.168Z,34.53
2022-12-14T01:16:51.593Z,35.60
2022-12-14T01:19:20.294Z,32.90
2022-12-14T01:21:48.595Z,32.63
2022-12-14T01:24:18.501Z,33.90
2022-12-14T01:26:46.963Z,34.37
2022-12-14T01:29:16.358Z,33.83
2022-12-14T01:31:44.904Z,31.70
2022-12-14T01:34:17.359Z,32.63
2022-12-14T01:36:45.878Z,33.10
2022-12-14T01:39:16.125Z,31.27
2022-12-14T01:41:49.670Z,32.10
2022-12-14T01:44:56.166Z,31.77
2022-12-14T01:47:37.727Z,32.80
2022-12-14T01:50:12.412Z,33.20
2022-12-14T01:52:44.659Z,30.67
2022-12-14T01:55:15.900Z,33.27
2022-12-14T01:57:50.105Z,31.60
2022-12-14T02:00:18.743Z,31.87
2022-12-14T02:02:52.240Z,32.90
2022-12-14T02:05:23.788Z,31.77
2022-12-14T02:07:54.106Z,31.43
2022-12-14T02:10:23.997Z,32.27
2022-12-14T02:12:59.792Z,31.33
2022-12-14T02:15:28.794Z,32.27
2022-12-14T02:17:58.039Z,31.00
2022-12-14T02:20:31.695Z,32.03
2022-12-14T02:23:45.163Z,31.43
2022-12-14T02:26:53.788Z,30.63
2022-12-14T02:29:51.524Z,30.33
2022-12-14T02:32:44.919Z,30.47
2022-12-14T02:35:18.582Z,29.77
2022-12-14T02:37:58.018Z,30.60
2022-12-14T02:40:35.074Z,31.77
2022-12-14T02:43:13.294Z,28.47
2022-12-14T02:45:45.272Z,27.90
2022-12-14T02:48:19.557Z,29.97
2022-12-14T02:50:54.958Z,28.50
2022-12-14T02:53:29.434Z,27.60
2022-12-14T02:56:03.231Z,30.47
2022-12-14T02:58:36.267Z,29.57
2022-12-14T03:01:05.904Z,29.87
2022-12-14T03:03:35.774Z,33.13
2022-12-14T03:06:14.789Z,31.60
2022-12-14T03:08:46.189Z,30.93
2022-12-14T03:11:19.696Z,30.63
2022-12-14T03:13:53.270Z,30.83
2022-12-14T03:16:24.521Z,32.03
2022-12-14T03:18:59.221Z,32.53
2022-12-14T03:21:32.036Z,32.70
2022-12-14T03:24:04.114Z,33.30
2022-12-14T03:26:36.022Z,33.50
2022-12-14T03:29:07.962Z,31.37
2022-12-14T03:31:43.084Z,32.30
2022-12-14T03:34:22.788Z,31.37
2022-12-14T03:36:55.204Z,30.97
2022-12-14T03:39:28.621Z,30.43
2022-12-14T03:42:04.972Z,32.07
2022-12-14T03:44:45.209Z,31.87
2022-12-14T03:47:29.911Z,30.97
2022-12-14T03:50:04.630Z,30.03
2022-12-14T03:52:37.356Z,29.23
2022-12-14T03:55:17.684Z,29.90
2022-12-14T03:58:01.007Z,28.83
2022-12-14T04:00:37.546Z,29.13
2022-12-14T04:03:17.657Z,30.30
2022-12-14T04:05:52.744Z,29.33
2022-12-14T04:08:29.807Z,29.50
2022-12-14T04:11:18.875Z,29.13
2022-12-14T04:14:15.053Z,28.47
2022-12-14T04:17:03.337Z,29.50
2022-12-14T04:19:36.874Z,30.30
2022-12-14T04:22:08.966Z,29.83
2022-12-14T04:24:59.230Z,30.37
2022-12-14T04:27:36.475Z,29.57
2022-12-14T04:30:05.776Z,29.27
2022-12-14T04:32:38.286Z,29.87
2022-12-14T04:35:13.526Z,30.70
2022-12-14T04:37:46.421Z,29.83
2022-12-14T04:40:22.761Z,28.97
2022-12-14T04:42:54.494Z,28.70
2022-12-14T04:45:28.504Z,28.93
2022-12-14T04:48:04.270Z,28.50
2022-12-14T04:50:36.616Z,28.67
2022-12-14T04:53:13.002Z,28.80
2022-12-14T04:55:47.388Z,29.87
2022-12-14T04:58:21.675Z,30.03
2022-12-14T05:01:04.612Z,30.17
2022-12-14T05:03:37.225Z,30.67
2022-12-14T05:06:10.195Z,30.10
2022-12-14T05:08:57.009Z,29.53
2022-12-14T05:11:52.501Z,28.07
2022-12-14T05:14:23.328Z,28.23
2022-12-14T05:16:51.868Z,28.90
2022-12-14T05:19:26.412Z,28.67
2022-12-14T05:21:56.073Z,30.00
2022-12-14T05:24:25.866Z,28.60
2022-12-14T05:26:54.285Z,28.03
2022-12-14T05:29:22.686Z,29.03
2022-12-14T05:31:52.130Z,29.07
2022-12-14T05:34:20.476Z,28.83
2022-12-14T05:36:48.783Z,30.23
2022-12-14T05:39:17.492Z,30.73
2022-12-14T05:41:47.348Z,29.33
2022-12-14T05:44:15.781Z,31.03
2022-12-14T05:46:44.171Z,30.80
2022-12-14T05:49:12.594Z,30.80
2022-12-14T05:51:41.697Z,30.17
2022-12-14T05:54:10.094Z,30.27
2022-12-14T05:56:38.578Z,32.00
2022-12-14T05:59:08.304Z,30.33
2022-12-14T06:01:36.760Z,32.17
2022-12-14T06:04:05.483Z,33.43
2022-12-14T06:06:35.057Z,31.57
2022-12-14T06:09:06.487Z,32.60
2022-12-14T06:11:37.892Z,32.17
2022-12-14T06:14:08.034Z,33.97
2022-12-14T06:16:37.335Z,32.67
2022-12-14T06:19:06.326Z,32.70
2022-12-14T06:21:36.480Z,33.00
2022-12-14T06:24:06.366Z,34.70
2022-12-14T06:26:37.486Z,33.70
2022-12-14T06:29:07.817Z,34.63
2022-12-14T06:31:38.229Z,36.63
2022-12-14T06:34:06.886Z,35.17
2022-12-14T06:36:37.128Z,33.57
2022-12-14T06:39:06.912Z,35.03
2022-12-14T06:41:35.701Z,37.47
2022-12-14T06:44:07.102Z,35.37
2022-12-14T06:46:38.144Z,37.63
2022-12-14T06:49:07.613Z,35.90
2022-12-14T06:51:40.603Z,42.63
2022-12-14T06:54:09.238Z,43.73
2022-12-14T06:56:40.714Z,37.80
2022-12-14T06:59:09.872Z,35.27
2022-12-14T07:01:40.814Z,37.13
2022-12-14T07:04:10.258Z,36.03
2022-12-14T07:06:40.357Z,34.77
2022-12-14T07:09:09.724Z,36.77
2022-12-14T07:11:38.434Z,35.90
2022-12-14T07:14:07.335Z,36.37
2022-12-14T07:16:37.012Z,37.87
2022-12-14T07:19:06.747Z,38.80
2022-12-14T07:21:35.308Z,39.50
2022-12-14T07:24:03.627Z,38.50
2022-12-14T07:26:32.037Z,39.40
2022-12-14T07:29:01.657Z,41.77
2022-12-14T07:31:30.751Z,38.47
2022-12-14T07:34:00.946Z,40.97
2022-12-14T07:36:33.071Z,40.47
2022-12-14T07:39:01.449Z,41.77
2022-12-14T07:41:31.901Z,39.87
2022-12-14T07:44:01.972Z,41.30
2022-12-14T07:46:32.306Z,40.37
2022-12-14T07:49:01.651Z,42.17
2022-12-14T07:51:33.507Z,40.03
2022-12-14T07:54:02.805Z,41.13
2022-12-14T07:56:32.859Z,44.67
2022-12-14T07:59:03.191Z,50.53
2022-12-14T08:01:33.695Z,55.92
2022-12-14T08:04:05.892Z,45.28
2022-12-14T08:06:36.836Z,46.17
2022-12-14T08:09:05.740Z,42.70
2022-12-14T08:11:34.374Z,43.00
2022-12-14T08:14:04.345Z,43.17
2022-12-14T08:16:34.086Z,41.87
2022-12-14T08:19:03.076Z,41.80
2022-12-14T08:21:31.935Z,45.07
2022-12-14T08:24:01.612Z,44.37
2022-12-14T08:26:35.166Z,46.27
2022-12-14T08:29:04.198Z,43.83
2022-12-14T08:31:33.607Z,42.80
2022-12-14T08:34:02.654Z,42.90
2022-12-14T08:36:34.175Z,44.37
2022-12-14T08:39:05.992Z,65.63
2022-12-14T08:41:35.121Z,67.83
2022-12-14T08:44:04.922Z,63.78
2022-12-14T08:46:34.792Z,55.03
2022-12-14T08:49:03.384Z,55.07
2022-12-14T08:51:32.055Z,52.70
2022-12-14T08:54:00.486Z,49.90
2022-12-14T08:56:30.429Z,49.47
2022-12-14T08:58:59.078Z,48.37
2022-12-14T09:01:33.518Z,42.77
2022-12-14T09:04:07.890Z,44.33
2022-12-14T09:06:38.570Z,45.63
2022-12-14T09:09:11.894Z,44.20
2022-12-14T09:11:45.944Z,46.20
2022-12-14T09:14:14.548Z,43.03
2022-12-14T09:16:43.059Z,43.17
2022-12-14T09:19:11.389Z,44.80
2022-12-14T09:21:39.971Z,44.23
2022-12-14T09:24:08.611Z,34.93
2022-12-14T09:26:37.240Z,43.73
2022-12-14T09:29:06.844Z,39.80
2022-12-14T09:31:35.298Z,55.53
2022-12-14T09:34:04.307Z,49.00
2022-12-14T09:36:32.783Z,45.40
2022-12-14T09:39:01.180Z,43.43
2022-12-14T09:41:39.878Z,40.60
2022-12-14T09:44:18.806Z,39.90
2022-12-14T09:46:56.058Z,40.23
2022-12-14T09:49:29.651Z,38.87
2022-12-14T09:52:01.356Z,37.60
2022-12-14T09:54:31.802Z,34.30
2022-12-14T09:57:05.705Z,36.77
2022-12-14T09:59:35.922Z,26.30
2022-12-14T10:02:33.160Z,25.47
2022-12-14T10:05:24.890Z,30.83
2022-12-14T10:08:02.967Z,32.77
2022-12-14T10:10:38.676Z,31.67
2022-12-14T10:13:16.792Z,31.67
2022-12-14T10:15:56.786Z,32.13
2022-12-14T10:21:28.205Z,32.90
2022-12-14T10:24:00.155Z,31.30
2022-12-14T10:26:33.482Z,31.53
2022-12-14T10:29:08.687Z,32.87
2022-12-14T10:31:45.840Z,32.73
2022-12-14T10:34:19.695Z,32.97
2022-12-14T10:36:56.550Z,34.63
2022-12-14T10:39:49.812Z,34.40
2022-12-14T10:42:25.243Z,33.10
2022-12-14T10:45:39.243Z,33.87
2022-12-14T10:48:07.187Z,32.53
2022-12-14T10:50:49.974Z,33.03
2022-12-14T10:53:23.895Z,34.43
2022-12-14T10:55:55.593Z,36.83
2022-12-14T10:58:24.059Z,34.20
2022-12-14T11:00:54.821Z,34.57
2022-12-14T11:03:24.831Z,32.83
2022-12-14T11:05:59.342Z,43.92
2022-12-14T11:08:42.560Z,41.93
2022-12-14T11:11:18.814Z,32.40
2022-12-14T11:13:55.924Z,31.43
2022-12-14T11:16:36.572Z,37.00
2022-12-14T11:19:16.083Z,38.23
2022-12-14T11:21:45.425Z,36.45
2022-12-14T11:24:26.097Z,32.53
2022-12-14T11:26:59.078Z,30.60
2022-12-14T11:29:32.351Z,33.70
2022-12-14T11:32:01.725Z,30.67
2022-12-14T11:34:37.860Z,30.90
2022-12-14T11:37:14.552Z,29.53
2022-12-14T11:39:44.339Z,30.63
2022-12-14T11:42:19.423Z,32.53
2022-12-14T11:44:49.671Z,31.53
2022-12-14T11:47:20.512Z,29.83
2022-12-14T11:49:51.696Z,30.33
2022-12-14T11:52:22.113Z,31.03
2022-12-14T11:55:10.951Z,31.20
2022-12-14T11:57:48.985Z,31.33
2022-12-14T12:00:26.151Z,31.43
2022-12-14T12:03:01.192Z,28.20
2022-12-14T12:05:33.582Z,28.73
2022-12-14T12:08:03.393Z,28.33
2022-12-14T12:10:38.935Z,29.20
2022-12-14T12:13:17.354Z,29.30
2022-12-14T12:15:51.961Z,26.83
2022-12-14T12:18:27.585Z,27.77
2022-12-14T12:21:02.616Z,26.80
2022-12-14T12:23:36.927Z,26.23
2022-12-14T12:26:13.379Z,24.30
2022-12-14T12:28:47.629Z,23.57
2022-12-14T12:31:23.431Z,24.83
2022-12-14T12:33:57.479Z,24.80
2022-12-14T12:36:27.630Z,24.03
2022-12-14T12:39:05.489Z,22.90
2022-12-14T12:41:42.899Z,22.77
2022-12-14T12:44:41.789Z,23.03
2022-12-14T12:47:32.314Z,28.27
2022-12-14T12:50:06.476Z,23.40
2022-12-14T12:52:48.274Z,23.47
2022-12-14T12:55:19.268Z,21.87
2022-12-14T12:57:50.382Z,22.37
2022-12-14T13:00:20.934Z,20.57
2022-12-14T13:02:54.049Z,21.80
2022-12-14T13:08:23.798Z,23.97
2022-12-14T13:13:46.675Z,20.70
2022-12-14T13:16:23.007Z,21.03
2022-12-14T13:19:04.900Z,24.40
2022-12-14T13:21:50.887Z,20.20
2022-12-14T13:24:22.856Z,22.17
2022-12-14T13:27:32.555Z,21.40
2022-12-14T13:30:20.660Z,22.90
2022-12-14T13:33:02.084Z,20.87
2022-12-14T13:35:47.973Z,21.37
2022-12-14T13:38:34.112Z,21.23
2022-12-14T13:41:25.598Z,20.87
2022-12-14T13:44:11.590Z,22.27
2022-12-14T13:46:40.260Z,19.80
2022-12-14T13:49:17.975Z,21.53
2022-12-14T13:51:50.349Z,21.87
2022-12-14T13:54:27.839Z,20.43
2022-12-14T13:57:06.490Z,20.37
2022-12-14T13:59:38.069Z,19.30
2022-12-14T14:02:08.183Z,18.73
2022-12-14T14:04:36.955Z,18.60
2022-12-14T14:07:39.400Z,19.93
2022-12-14T14:10:28.136Z,18.70
2022-12-14T14:12:57.913Z,19.53
2022-12-14T14:15:38.116Z,20.17
2022-12-14T14:18:15.480Z,19.93
2022-12-14T14:20:45.813Z,20.23
2022-12-14T14:23:38.406Z,19.37
2022-12-14T14:26:24.572Z,19.13
2022-12-14T14:29:19.334Z,20.00
2022-12-14T14:31:50.542Z,21.20
2022-12-14T14:34:23.399Z,23.70
2022-12-14T14:36:52.500Z,21.87
2022-12-14T14:42:25.456Z,21.30
2022-12-14T14:44:58.573Z,23.30
2022-12-14T14:47:30.134Z,27.00
2022-12-14T14:50:02.261Z,22.00
2022-12-14T14:52:55.223Z,22.03
2022-12-14T14:56:05.320Z,23.43
2022-12-14T14:58:36.172Z,24.83
2022-12-14T15:01:25.894Z,22.77
2022-12-14T15:03:57.717Z,22.30
2022-12-14T15:06:29.228Z,23.43
2022-12-14T15:09:06.381Z,22.70
2022-12-14T15:11:43.707Z,23.63
2022-12-14T15:14:35.538Z,24.37
2022-12-14T15:17:16.206Z,22.87
2022-12-14T15:19:49.361Z,22.40
2022-12-14T15:22:20.389Z,23.80
2022-12-14T15:24:52.142Z,23.30
2022-12-14T15:27:25.706Z,23.20
2022-12-14T15:29:55.667Z,24.70
2022-12-14T15:32:26.340Z,23.73
2022-12-14T15:34:57.092Z,23.43
2022-12-14T15:37:29.188Z,24.67
2022-12-14T15:40:07.142Z,23.47
2022-12-14T15:42:35.699Z,24.03
2022-12-14T15:45:11.285Z,24.77
2022-12-14T15:47:40.841Z,22.63
2022-12-14T15:50:16.769Z,25.27
2022-12-14T15:52:46.959Z,23.17
2022-12-14T15:55:35.189Z,24.20
2022-12-14T15:58:11.374Z,25.37
2022-12-14T16:00:43.820Z,24.60
2022-12-14T16:03:23.078Z,24.70
2022-12-14T16:05:52.131Z,25.20
2022-12-14T16:08:24.186Z,26.53
2022-12-14T16:10:54.777Z,26.93
2022-12-14T16:13:28.636Z,27.80
2022-12-14T16:15:59.076Z,30.60
2022-12-14T16:18:29.023Z,28.60
2022-12-14T16:20:59.592Z,28.40
2022-12-14T16:23:32.174Z,27.03
2022-12-14T16:26:03.168Z,26.97
2022-12-14T16:28:34.278Z,25.37
2022-12-14T16:31:06.135Z,26.33
2022-12-14T16:33:38.654Z,25.83
2022-12-14T16:36:09.486Z,25.43
2022-12-14T16:38:43.207Z,25.90
2022-12-14T16:41:11.785Z,26.43
2022-12-14T16:43:42.018Z,25.97
2022-12-14T16:46:18.630Z,26.27
2022-12-14T16:49:22.259Z,26.50
2022-12-14T16:52:07.365Z,26.57
2022-12-14T16:54:38.901Z,26.93
2022-12-14T16:57:09.869Z,26.77
2022-12-14T16:59:43.883Z,27.90
2022-12-14T17:02:30.363Z,30.57
2022-12-14T17:05:02.586Z,29.13
2022-12-14T17:07:33.160Z,29.50
2022-12-14T17:10:01.537Z,28.07
2022-12-14T17:12:30.311Z,29.10
2022-12-14T17:14:58.950Z,30.13
2022-12-14T17:17:33.668Z,28.07
2022-12-14T17:20:05.865Z,31.07
2022-12-14T17:22:37.784Z,30.33
2022-12-14T17:25:06.694Z,29.77
2022-12-14T17:27:35.000Z,29.70
2022-12-14T17:30:03.412Z,27.97
2022-12-14T17:32:31.939Z,28.53
2022-12-14T17:35:00.770Z,28.80
2022-12-14T17:37:36.481Z,28.67
2022-12-14T17:40:06.409Z,25.50
2022-12-14T17:42:35.897Z,24.50
2022-12-14T17:45:04.777Z,22.07
2022-12-14T17:47:33.231Z,23.30
2022-12-14T17:50:01.797Z,20.70
2022-12-14T17:52:33.189Z,21.67
2022-12-14T17:55:01.783Z,22.33
2022-12-14T17:57:30.240Z,22.17
2022-12-14T18:00:12.635Z,22.40
2022-12-14T18:02:42.126Z,19.97
2022-12-14T18:05:19.386Z,19.57
2022-12-14T18:07:49.755Z,20.60
2022-12-14T18:10:19.829Z,19.27
2022-12-14T18:12:48.680Z,23.13
2022-12-14T18:15:20.098Z,21.77
2022-12-14T18:17:49.333Z,22.73
2022-12-14T18:20:19.351Z,21.87
2022-12-14T18:22:50.349Z,22.70
2022-12-14T18:25:27.832Z,22.20
2022-12-14T18:27:56.433Z,22.90
2022-12-14T18:30:25.578Z,24.77
2022-12-14T18:32:55.236Z,25.77
2022-12-14T18:35:25.808Z,27.33
2022-12-14T18:37:55.866Z,39.20
2022-12-14T18:40:26.036Z,40.47
2022-12-14T18:42:55.168Z,39.50
2022-12-14T18:45:25.367Z,38.40
2022-12-14T18:47:54.153Z,36.07
2022-12-14T18:50:23.459Z,35.00
2022-12-14T18:52:52.372Z,38.33
2022-12-14T18:55:24.651Z,36.93
2022-12-14T18:57:54.527Z,36.23
2022-12-14T19:00:25.117Z,36.73
2022-12-14T19:02:54.702Z,38.10
2022-12-14T19:05:26.372Z,37.17
2022-12-14T19:07:55.651Z,34.37
2022-12-14T19:10:27.825Z,32.70
2022-12-14T19:12:57.272Z,34.13
2022-12-14T19:15:27.703Z,35.90
2022-12-14T19:17:56.714Z,37.80
2022-12-14T19:20:25.646Z,40.03
2022-12-14T19:22:54.353Z,37.77
2022-12-14T19:25:23.213Z,40.17
2022-12-14T19:30:44.200Z,44.07
2022-12-14T19:33:12.870Z,46.67
2022-12-14T19:35:42.036Z,47.73
2022-12-14T19:38:14.536Z,50.20
2022-12-14T19:40:46.201Z,46.30
2022-12-14T19:43:16.055Z,46.13
2022-12-14T19:45:47.271Z,45.23
2022-12-14T19:48:15.691Z,46.23
2022-12-14T19:50:44.096Z,47.00
2022-12-14T19:53:23.165Z,66.67
2022-12-14T19:55:53.378Z,50.07
2022-12-14T19:58:25.170Z,44.20
2022-12-14T20:00:53.779Z,36.10
2022-12-14T20:03:22.497Z,35.63
2022-12-14T20:05:52.513Z,37.03
2022-12-14T20:08:21.348Z,37.17
2022-12-14T20:10:52.675Z,37.83
2022-12-14T20:13:22.916Z,35.63
2022-12-14T20:15:51.689Z,32.40
2022-12-14T20:18:20.326Z,33.37
2022-12-14T20:20:49.970Z,35.47
2022-12-14T20:23:19.174Z,38.23
2022-12-14T20:25:48.040Z,39.27
2022-12-14T20:28:16.460Z,38.40
2022-12-14T20:30:48.375Z,40.73
2022-12-14T20:33:17.061Z,38.93
2022-12-14T20:35:45.363Z,48.03
2022-12-14T20:38:13.800Z,34.20
2022-12-14T20:40:42.078Z,36.20
2022-12-14T20:43:10.475Z,30.80
2022-12-14T20:45:39.990Z,29.67
2022-12-14T20:48:10.171Z,32.27
2022-12-14T20:50:40.809Z,44.83
2022-12-14T20:53:09.699Z,36.67
2022-12-14T20:55:38.179Z,34.77
2022-12-14T20:58:06.515Z,39.90
2022-12-14T21:00:35.045Z,37.97
2022-12-14T21:03:05.426Z,43.57
2022-12-14T21:05:39.862Z,42.17
2022-12-14T21:08:08.334Z,39.93
2022-12-14T21:10:37.246Z,34.97
2022-12-14T21:13:07.857Z,33.60
2022-12-14T21:15:36.778Z,31.30
2022-12-14T21:18:05.499Z,32.47
2022-12-14T21:20:35.284Z,28.93
2022-12-14T21:23:03.538Z,28.57
2022-12-14T21:25:32.015Z,28.63
2022-12-14T21:28:00.535Z,30.43
2022-12-14T21:30:29.394Z,28.33
2022-12-14T21:32:58.698Z,29.63
2022-12-14T21:35:27.228Z,30.67
2022-12-14T21:37:57.083Z,28.50
2022-12-14T21:40:43.127Z,29.53
2022-12-14T21:43:13.089Z,28.57
2022-12-14T21:45:41.617Z,29.67
2022-12-14T21:48:10.070Z,33.07
2022-12-14T21:50:38.880Z,31.77
2022-12-14T21:53:08.651Z,31.97
2022-12-14T21:55:37.252Z,34.93
2022-12-14T21:58:16.445Z,32.63
2022-12-14T22:00:45.031Z,29.20
2022-12-14T22:03:13.776Z,41.37
2022-12-14T22:05:42.234Z,35.13
2022-12-14T22:08:11.998Z,31.67
2022-12-14T22:10:40.565Z,35.83
2022-12-14T22:13:09.108Z,34.17
2022-12-14T22:15:37.534Z,31.63
2022-12-14T22:18:05.961Z,30.47
2022-12-14T22:20:34.495Z,29.57
2022-12-14T22:23:03.149Z,29.40
2022-12-14T22:25:32.987Z,28.90
2022-12-14T22:28:01.415Z,28.80
2022-12-14T22:30:32.002Z,28.73
2022-12-14T22:33:00.814Z,28.73
2022-12-14T22:35:29.034Z,28.57
2022-12-14T22:37:57.658Z,27.90
2022-12-14T22:40:26.212Z,27.50
2022-12-14T22:42:55.849Z,26.57
2022-12-14T22:45:24.297Z,25.10
2022-12-14T22:47:52.783Z,24.17
2022-12-14T22:50:21.616Z,23.50
2022-12-14T22:52:49.985Z,23.70
2022-12-14T22:55:18.429Z,22.60
2022-12-14T22:57:48.784Z,23.30
2022-12-14T23:00:18.963Z,22.23
2022-12-14T23:02:48.875Z,22.10
2022-12-14T23:05:17.719Z,20.87
2022-12-14T23:07:45.996Z,21.20
2022-12-14T23:10:31.550Z,21.27
2022-12-14T23:13:17.551Z,22.50
2022-12-14T23:16:04.651Z,22.80
2022-12-14T23:18:50.659Z,24.70
2022-12-14T23:21:36.415Z,26.03
2022-12-14T23:24:22.595Z,26.73
2022-12-14T23:27:09.918Z,25.90
2022-12-14T23:29:56.424Z,27.50
2022-12-14T23:32:43.679Z,26.70
2022-12-14T23:35:29.554Z,27.57
2022-12-14T23:38:15.321Z,26.93
2022-12-14T23:41:00.961Z,27.07
2022-12-14T23:43:46.871Z,26.60
2022-12-14T23:46:32.766Z,27.27
2022-12-14T23:49:20.051Z,27.63
2022-12-14T23:52:06.009Z,28.67
2022-12-14T23:54:51.942Z,27.57
2022-12-14T23:57:37.833Z,25.50
